<?xml version="1.0" encoding="UTF-8" standalone="no" ?>
<gpx xmlns="http://www.topografix.com/GPX/1/1" xmlns:xsi="http://www.w3.org/2001/XMLSchema-instance" xsi:schemaLocation="http://www.topografix.com/GPX/1/1 http://www.topografix.com/GPX/1/1/gpx.xsd" version="1.1" creator="VisuGPX - https://www.visugpx.com">
  <metadata>
    <name>14084334-St Laurent par St Malo la Bordelière</name>
  </metadata>
  <trk>
    <name><![CDATA[14084334-St Laurent par St Malo la Bordelière]]></name>
    <trkseg>
      <trkpt lat="46.94722" lon="-0.89551">
        <ele>173</ele>
        <time>2022-01-03T12:33:35Z</time>
      </trkpt>
      <trkpt lat="46.94719" lon="-0.89562">
        <ele>173</ele>
        <time>2022-01-03T12:33:41Z</time>
      </trkpt>
      <trkpt lat="46.947" lon="-0.89564">
        <ele>173</ele>
        <time>2022-01-03T12:33:57Z</time>
      </trkpt>
      <trkpt lat="46.94688" lon="-0.89546">
        <ele>174</ele>
        <time>2022-01-03T12:34:10Z</time>
      </trkpt>
      <trkpt lat="46.94661" lon="-0.89587">
        <ele>171</ele>
        <time>2022-01-03T12:34:42Z</time>
      </trkpt>
      <trkpt lat="46.94658" lon="-0.89637">
        <ele>168</ele>
        <time>2022-01-03T12:35:09Z</time>
      </trkpt>
      <trkpt lat="46.94689" lon="-0.89646">
        <ele>167</ele>
        <time>2022-01-03T12:35:34Z</time>
      </trkpt>
      <trkpt lat="46.94739" lon="-0.89675">
        <ele>166</ele>
        <time>2022-01-03T12:36:17Z</time>
      </trkpt>
      <trkpt lat="46.94819" lon="-0.89695">
        <ele>163</ele>
        <time>2022-01-03T12:37:22Z</time>
      </trkpt>
      <trkpt lat="46.94854" lon="-0.89675">
        <ele>163</ele>
        <time>2022-01-03T12:37:52Z</time>
      </trkpt>
      <trkpt lat="46.94869" lon="-0.89697">
        <ele>161</ele>
        <time>2022-01-03T12:38:09Z</time>
      </trkpt>
      <trkpt lat="46.94867" lon="-0.8972">
        <ele>161</ele>
        <time>2022-01-03T12:38:22Z</time>
      </trkpt>
      <trkpt lat="46.94869" lon="-0.89741">
        <ele>160</ele>
        <time>2022-01-03T12:38:34Z</time>
      </trkpt>
      <trkpt lat="46.94896" lon="-0.89811">
        <ele>157</ele>
        <time>2022-01-03T12:39:18Z</time>
      </trkpt>
      <trkpt lat="46.94741" lon="-0.89968">
        <ele>159</ele>
        <time>2022-01-03T12:41:49Z</time>
      </trkpt>
      <trkpt lat="46.9467" lon="-0.90087">
        <ele>161</ele>
        <time>2022-01-03T12:43:15Z</time>
      </trkpt>
      <trkpt lat="46.94544" lon="-0.90213">
        <ele>166</ele>
        <time>2022-01-03T12:45:17Z</time>
      </trkpt>
      <trkpt lat="46.94466" lon="-0.90282">
        <ele>168</ele>
        <time>2022-01-03T12:46:30Z</time>
      </trkpt>
      <trkpt lat="46.94428" lon="-0.90333">
        <ele>165</ele>
        <time>2022-01-03T12:47:11Z</time>
      </trkpt>
      <trkpt lat="46.94412" lon="-0.90466">
        <ele>161</ele>
        <time>2022-01-03T12:48:25Z</time>
      </trkpt>
      <trkpt lat="46.94359" lon="-0.90585">
        <ele>157</ele>
        <time>2022-01-03T12:49:43Z</time>
      </trkpt>
      <trkpt lat="46.94341" lon="-0.90641">
        <ele>155</ele>
        <time>2022-01-03T12:50:17Z</time>
      </trkpt>
      <trkpt lat="46.94298" lon="-0.90671">
        <ele>156</ele>
        <time>2022-01-03T12:50:55Z</time>
      </trkpt>
      <trkpt lat="46.9428" lon="-0.90699">
        <ele>155</ele>
        <time>2022-01-03T12:51:16Z</time>
      </trkpt>
      <trkpt lat="46.94264" lon="-0.90781">
        <ele>154</ele>
        <time>2022-01-03T12:52:02Z</time>
      </trkpt>
      <trkpt lat="46.94152" lon="-0.90829">
        <ele>162</ele>
        <time>2022-01-03T12:53:36Z</time>
      </trkpt>
      <trkpt lat="46.941" lon="-0.90831">
        <ele>166</ele>
        <time>2022-01-03T12:54:18Z</time>
      </trkpt>
      <trkpt lat="46.93998" lon="-0.90862">
        <ele>174</ele>
        <time>2022-01-03T12:55:41Z</time>
      </trkpt>
      <trkpt lat="46.9397" lon="-0.90846">
        <ele>175</ele>
        <time>2022-01-03T12:56:05Z</time>
      </trkpt>
      <trkpt lat="46.93948" lon="-0.90863">
        <ele>175</ele>
        <time>2022-01-03T12:56:25Z</time>
      </trkpt>
      <trkpt lat="46.9384" lon="-0.90876">
        <ele>177</ele>
        <time>2022-01-03T12:57:52Z</time>
      </trkpt>
      <trkpt lat="46.93796" lon="-0.90872">
        <ele>180</ele>
        <time>2022-01-03T12:58:27Z</time>
      </trkpt>
      <trkpt lat="46.93722" lon="-0.90945">
        <ele>187</ele>
        <time>2022-01-03T12:59:38Z</time>
      </trkpt>
      <trkpt lat="46.9358" lon="-0.90957">
        <ele>192</ele>
        <time>2022-01-03T13:01:32Z</time>
      </trkpt>
      <trkpt lat="46.93467" lon="-0.91109">
        <ele>199</ele>
        <time>2022-01-03T13:03:35Z</time>
      </trkpt>
      <trkpt lat="46.93238" lon="-0.91001">
        <ele>196</ele>
        <time>2022-01-03T13:06:48Z</time>
      </trkpt>
      <trkpt lat="46.93126" lon="-0.90881">
        <ele>197</ele>
        <time>2022-01-03T13:08:39Z</time>
      </trkpt>
      <trkpt lat="46.93074" lon="-0.90735">
        <ele>199</ele>
        <time>2022-01-03T13:10:09Z</time>
      </trkpt>
      <trkpt lat="46.92977" lon="-0.90592">
        <ele>199</ele>
        <time>2022-01-03T13:11:59Z</time>
      </trkpt>
      <trkpt lat="46.92924" lon="-0.90536">
        <ele>198</ele>
        <time>2022-01-03T13:12:51Z</time>
      </trkpt>
      <trkpt lat="46.92851" lon="-0.90451">
        <ele>196</ele>
        <time>2022-01-03T13:14:06Z</time>
      </trkpt>
      <trkpt lat="46.92823" lon="-0.90416">
        <ele>194</ele>
        <time>2022-01-03T13:14:36Z</time>
      </trkpt>
      <trkpt lat="46.92802" lon="-0.90342">
        <ele>192</ele>
        <time>2022-01-03T13:15:19Z</time>
      </trkpt>
      <trkpt lat="46.92818" lon="-0.90293">
        <ele>192</ele>
        <time>2022-01-03T13:15:49Z</time>
      </trkpt>
      <trkpt lat="46.92859" lon="-0.90314">
        <ele>193</ele>
        <time>2022-01-03T13:16:24Z</time>
      </trkpt>
      <trkpt lat="46.92881" lon="-0.90343">
        <ele>194</ele>
        <time>2022-01-03T13:16:48Z</time>
      </trkpt>
      <trkpt lat="46.92921" lon="-0.90311">
        <ele>194</ele>
        <time>2022-01-03T13:17:24Z</time>
      </trkpt>
      <trkpt lat="46.92937" lon="-0.90298">
        <ele>195</ele>
        <time>2022-01-03T13:17:39Z</time>
      </trkpt>
      <trkpt lat="46.92918" lon="-0.9026">
        <ele>194</ele>
        <time>2022-01-03T13:18:05Z</time>
      </trkpt>
      <trkpt lat="46.92935" lon="-0.90248">
        <ele>195</ele>
        <time>2022-01-03T13:18:20Z</time>
      </trkpt>
      <trkpt lat="46.9295" lon="-0.90285">
        <ele>196</ele>
        <time>2022-01-03T13:18:43Z</time>
      </trkpt>
      <trkpt lat="46.92979" lon="-0.90268">
        <ele>197</ele>
        <time>2022-01-03T13:19:08Z</time>
      </trkpt>
      <trkpt lat="46.93003" lon="-0.90266">
        <ele>198</ele>
        <time>2022-01-03T13:19:27Z</time>
      </trkpt>
      <trkpt lat="46.93053" lon="-0.90366">
        <ele>198</ele>
        <time>2022-01-03T13:20:35Z</time>
      </trkpt>
      <trkpt lat="46.93092" lon="-0.90454">
        <ele>200</ele>
        <time>2022-01-03T13:21:33Z</time>
      </trkpt>
      <trkpt lat="46.93121" lon="-0.90494">
        <ele>199</ele>
        <time>2022-01-03T13:22:04Z</time>
      </trkpt>
      <trkpt lat="46.9313" lon="-0.90497">
        <ele>198</ele>
        <time>2022-01-03T13:22:12Z</time>
      </trkpt>
      <trkpt lat="46.93136" lon="-0.90485">
        <ele>198</ele>
        <time>2022-01-03T13:22:20Z</time>
      </trkpt>
      <trkpt lat="46.93154" lon="-0.90405">
        <ele>197</ele>
        <time>2022-01-03T13:23:06Z</time>
      </trkpt>
      <trkpt lat="46.93152" lon="-0.90209">
        <ele>194</ele>
        <time>2022-01-03T13:24:53Z</time>
      </trkpt>
      <trkpt lat="46.93135" lon="-0.90067">
        <ele>195</ele>
        <time>2022-01-03T13:26:12Z</time>
      </trkpt>
      <trkpt lat="46.93185" lon="-0.90029">
        <ele>194</ele>
        <time>2022-01-03T13:26:57Z</time>
      </trkpt>
      <trkpt lat="46.9325" lon="-0.89974">
        <ele>194</ele>
        <time>2022-01-03T13:27:57Z</time>
      </trkpt>
      <trkpt lat="46.93412" lon="-0.89794">
        <ele>192</ele>
        <time>2022-01-03T13:30:40Z</time>
      </trkpt>
      <trkpt lat="46.93468" lon="-0.89745">
        <ele>188</ele>
        <time>2022-01-03T13:31:32Z</time>
      </trkpt>
      <trkpt lat="46.93473" lon="-0.89722">
        <ele>188</ele>
        <time>2022-01-03T13:31:45Z</time>
      </trkpt>
      <trkpt lat="46.93493" lon="-0.89714">
        <ele>187</ele>
        <time>2022-01-03T13:32:02Z</time>
      </trkpt>
      <trkpt lat="46.93515" lon="-0.89742">
        <ele>186</ele>
        <time>2022-01-03T13:32:25Z</time>
      </trkpt>
      <trkpt lat="46.93757" lon="-0.89741">
        <ele>176</ele>
        <time>2022-01-03T13:35:39Z</time>
      </trkpt>
      <trkpt lat="46.93771" lon="-0.8972">
        <ele>176</ele>
        <time>2022-01-03T13:35:55Z</time>
      </trkpt>
      <trkpt lat="46.93774" lon="-0.89699">
        <ele>176</ele>
        <time>2022-01-03T13:36:07Z</time>
      </trkpt>
      <trkpt lat="46.93787" lon="-0.89699">
        <ele>176</ele>
        <time>2022-01-03T13:36:17Z</time>
      </trkpt>
      <trkpt lat="46.93787" lon="-0.89718">
        <ele>176</ele>
        <time>2022-01-03T13:36:28Z</time>
      </trkpt>
      <trkpt lat="46.93796" lon="-0.89744">
        <ele>175</ele>
        <time>2022-01-03T13:36:44Z</time>
      </trkpt>
      <trkpt lat="46.93896" lon="-0.89752">
        <ele>176</ele>
        <time>2022-01-03T13:38:04Z</time>
      </trkpt>
      <trkpt lat="46.94189" lon="-0.89729">
        <ele>172</ele>
        <time>2022-01-03T13:41:59Z</time>
      </trkpt>
      <trkpt lat="46.94197" lon="-0.89701">
        <ele>173</ele>
        <time>2022-01-03T13:42:15Z</time>
      </trkpt>
      <trkpt lat="46.94223" lon="-0.89699">
        <ele>173</ele>
        <time>2022-01-03T13:42:36Z</time>
      </trkpt>
      <trkpt lat="46.94229" lon="-0.89709">
        <ele>173</ele>
        <time>2022-01-03T13:42:44Z</time>
      </trkpt>
      <trkpt lat="46.94245" lon="-0.89709">
        <ele>174</ele>
        <time>2022-01-03T13:42:56Z</time>
      </trkpt>
      <trkpt lat="46.94258" lon="-0.89691">
        <ele>174</ele>
        <time>2022-01-03T13:43:11Z</time>
      </trkpt>
      <trkpt lat="46.94289" lon="-0.89678">
        <ele>175</ele>
        <time>2022-01-03T13:43:36Z</time>
      </trkpt>
      <trkpt lat="46.94312" lon="-0.89687">
        <ele>175</ele>
        <time>2022-01-03T13:43:56Z</time>
      </trkpt>
      <trkpt lat="46.94339" lon="-0.89679">
        <ele>175</ele>
        <time>2022-01-03T13:44:18Z</time>
      </trkpt>
      <trkpt lat="46.94354" lon="-0.89657">
        <ele>175</ele>
        <time>2022-01-03T13:44:35Z</time>
      </trkpt>
      <trkpt lat="46.9437" lon="-0.89646">
        <ele>175</ele>
        <time>2022-01-03T13:44:49Z</time>
      </trkpt>
      <trkpt lat="46.94392" lon="-0.89655">
        <ele>175</ele>
        <time>2022-01-03T13:45:07Z</time>
      </trkpt>
      <trkpt lat="46.94414" lon="-0.89657">
        <ele>175</ele>
        <time>2022-01-03T13:45:25Z</time>
      </trkpt>
      <trkpt lat="46.94427" lon="-0.8964">
        <ele>174</ele>
        <time>2022-01-03T13:45:39Z</time>
      </trkpt>
      <trkpt lat="46.94446" lon="-0.89647">
        <ele>174</ele>
        <time>2022-01-03T13:45:54Z</time>
      </trkpt>
      <trkpt lat="46.94462" lon="-0.89642">
        <ele>173</ele>
        <time>2022-01-03T13:46:07Z</time>
      </trkpt>
      <trkpt lat="46.94469" lon="-0.89625">
        <ele>174</ele>
        <time>2022-01-03T13:46:18Z</time>
      </trkpt>
      <trkpt lat="46.94483" lon="-0.89616">
        <ele>174</ele>
        <time>2022-01-03T13:46:30Z</time>
      </trkpt>
      <trkpt lat="46.94495" lon="-0.89614">
        <ele>174</ele>
        <time>2022-01-03T13:46:40Z</time>
      </trkpt>
      <trkpt lat="46.94508" lon="-0.89626">
        <ele>173</ele>
        <time>2022-01-03T13:46:52Z</time>
      </trkpt>
      <trkpt lat="46.94524" lon="-0.89626">
        <ele>172</ele>
        <time>2022-01-03T13:47:05Z</time>
      </trkpt>
      <trkpt lat="46.94544" lon="-0.89614">
        <ele>172</ele>
        <time>2022-01-03T13:47:23Z</time>
      </trkpt>
      <trkpt lat="46.94556" lon="-0.89614">
        <ele>172</ele>
        <time>2022-01-03T13:47:32Z</time>
      </trkpt>
      <trkpt lat="46.94554" lon="-0.89593">
        <ele>173</ele>
        <time>2022-01-03T13:47:44Z</time>
      </trkpt>
      <trkpt lat="46.94561" lon="-0.89565">
        <ele>174</ele>
        <time>2022-01-03T13:48:00Z</time>
      </trkpt>
      <trkpt lat="46.94586" lon="-0.89526">
        <ele>175</ele>
        <time>2022-01-03T13:48:29Z</time>
      </trkpt>
      <trkpt lat="46.94612" lon="-0.89498">
        <ele>177</ele>
        <time>2022-01-03T13:48:55Z</time>
      </trkpt>
      <trkpt lat="46.94627" lon="-0.8951">
        <ele>176</ele>
        <time>2022-01-03T13:49:09Z</time>
      </trkpt>
      <trkpt lat="46.94687" lon="-0.89539">
        <ele>175</ele>
        <time>2022-01-03T13:49:59Z</time>
      </trkpt>
      <trkpt lat="46.94722" lon="-0.89551">
        <ele>173</ele>
        <time>2022-01-03T13:50:28Z</time>
      </trkpt>
    </trkseg>
  </trk>
</gpx>